createdAt,value
2022-10-02T00:01:53.194Z,92.40
2022-10-02T00:04:27.753Z,92.35
2022-10-02T00:06:59.545Z,92.34
2022-10-02T00:09:30.603Z,92.51
2022-10-02T00:11:59.412Z,92.37
2022-10-02T00:14:30.122Z,92.48
2022-10-02T00:16:59.851Z,92.52
2022-10-02T00:19:26.961Z,92.58
2022-10-02T00:22:21.564Z,92.47
2022-10-02T00:25:01.131Z,92.30
2022-10-02T00:27:43.775Z,92.33
2022-10-02T00:30:12.277Z,92.20
2022-10-02T00:32:49.378Z,92.66
2022-10-02T00:35:35.555Z,92.41
2022-10-02T00:38:17.616Z,92.46
2022-10-02T00:41:15.311Z,92.66
2022-10-02T00:44:06.893Z,92.64
2022-10-02T00:46:43.479Z,92.73
2022-10-02T00:49:29.965Z,92.73
2022-10-02T00:52:04.795Z,92.88
2022-10-02T00:54:56.205Z,92.81
2022-10-02T00:57:42.096Z,92.48
2022-10-02T01:00:11.940Z,92.85
2022-10-02T01:02:51.694Z,92.84
2022-10-02T01:05:19.404Z,92.76
2022-10-02T01:07:50.220Z,93.03
2022-10-02T01:10:16.938Z,92.95
2022-10-02T01:12:43.764Z,93.02
2022-10-02T01:15:21.073Z,92.70
2022-10-02T01:17:50.390Z,92.55
2022-10-02T01:20:31.167Z,92.61
2022-10-02T01:23:19.369Z,92.87
2022-10-02T01:25:46.410Z,92.84
2022-10-02T01:28:13.331Z,92.75
2022-10-02T01:30:42.132Z,92.59
2022-10-02T01:33:10.066Z,92.78
2022-10-02T01:35:38.346Z,92.68
2022-10-02T01:38:11.952Z,92.36
2022-10-02T01:40:40.340Z,92.57
2022-10-02T01:43:19.762Z,92.56
2022-10-02T01:45:52.991Z,92.39
2022-10-02T01:48:22.378Z,92.36
2022-10-02T01:51:20.647Z,92.23
2022-10-02T01:54:19.877Z,91.95
2022-10-02T01:57:14.805Z,91.93
2022-10-02T01:59:59.848Z,92.08
2022-10-02T02:02:43.547Z,92.04
2022-10-02T02:05:35.949Z,91.78
2022-10-02T02:08:10.144Z,91.76
2022-10-02T02:10:46.719Z,91.49
2022-10-02T02:13:23.497Z,91.49
2022-10-02T02:16:00.244Z,91.48
2022-10-02T02:18:43.525Z,91.50
2022-10-02T02:21:21.963Z,91.45
2022-10-02T02:23:50.196Z,91.50
2022-10-02T02:26:18.988Z,91.48
2022-10-02T02:28:50.616Z,91.87
2022-10-02T02:31:21.489Z,91.62
2022-10-02T02:33:53.122Z,91.67
2022-10-02T02:36:23.416Z,91.59
2022-10-02T02:38:53.612Z,91.89
2022-10-02T02:41:26.045Z,91.80
2022-10-02T02:43:57.934Z,91.54
2022-10-02T02:46:34.496Z,91.56
2022-10-02T02:49:06.689Z,91.38
2022-10-02T02:51:37.776Z,91.79
2022-10-02T02:54:15.951Z,91.65
2022-10-02T02:56:44.162Z,91.72
2022-10-02T02:59:13.350Z,91.63
2022-10-02T03:01:40.932Z,91.65
2022-10-02T03:04:11.644Z,91.56
2022-10-02T03:06:42.318Z,91.54
2022-10-02T03:09:18.426Z,91.57
2022-10-02T03:11:45.079Z,91.64
2022-10-02T03:14:25.639Z,91.80
2022-10-02T03:17:22.228Z,91.44
2022-10-02T03:19:55.135Z,91.66
2022-10-02T03:22:35.685Z,91.54
2022-10-02T03:25:26.366Z,91.39
2022-10-02T03:28:03.499Z,91.58
2022-10-02T03:30:31.731Z,91.62
2022-10-02T03:33:01.137Z,91.54
2022-10-02T03:35:29.066Z,91.65
2022-10-02T03:37:59.752Z,91.63
2022-10-02T03:40:27.541Z,91.67
2022-10-02T03:42:58.332Z,91.50
2022-10-02T03:45:49.532Z,91.69
2022-10-02T03:48:12.160Z,91.51
2022-10-02T03:50:38.871Z,91.55
2022-10-02T03:53:16.970Z,91.54
2022-10-02T03:55:49.664Z,91.40
2022-10-02T03:58:36.528Z,91.82
2022-10-02T04:01:13.933Z,91.52
2022-10-02T04:03:51.414Z,91.42
2022-10-02T04:14:22.983Z,91.44
2022-10-02T04:17:02.325Z,91.54
2022-10-02T04:19:39.988Z,91.41
2022-10-02T04:22:33.739Z,91.19
2022-10-02T04:25:32.070Z,91.27
2022-10-02T04:28:05.606Z,91.46
2022-10-02T04:30:32.383Z,91.38
2022-10-02T04:33:13.751Z,91.38
2022-10-02T04:36:03.359Z,91.07
2022-10-02T04:38:51.078Z,91.23
2022-10-02T04:41:30.595Z,91.28
2022-10-02T04:44:06.024Z,90.99
2022-10-02T04:46:36.124Z,90.99
2022-10-02T04:49:23.590Z,91.30
2022-10-02T04:51:58.912Z,91.14
2022-10-02T04:54:31.949Z,91.42
2022-10-02T04:57:20.247Z,91.26
2022-10-02T05:00:15.420Z,91.43
2022-10-02T05:03:01.024Z,91.22
2022-10-02T05:05:54.330Z,91.06
2022-10-02T05:08:27.030Z,90.91
2022-10-02T05:11:46.354Z,90.90
2022-10-02T05:14:50.849Z,91.07
2022-10-02T05:17:28.022Z,90.98
2022-10-02T05:20:07.719Z,90.92
2022-10-02T05:26:40.411Z,90.91
2022-10-02T05:29:42.397Z,90.90
2022-10-02T05:32:44.318Z,90.78
2022-10-02T05:35:32.077Z,90.63
2022-10-02T05:38:26.681Z,90.81
2022-10-02T05:41:28.286Z,90.79
2022-10-02T05:44:11.833Z,90.82
2022-10-02T05:47:32.902Z,90.50
2022-10-02T05:50:27.635Z,90.73
2022-10-02T05:52:59.799Z,90.56
2022-10-02T05:55:34.543Z,90.54
2022-10-02T05:58:09.887Z,90.37
2022-10-02T06:00:43.831Z,90.18
2022-10-02T06:03:24.062Z,90.51
2022-10-02T06:06:02.394Z,90.46
2022-10-02T06:08:36.867Z,90.36
2022-10-02T06:11:20.266Z,90.03
2022-10-02T06:13:50.883Z,90.11
2022-10-02T06:16:29.832Z,89.87
2022-10-02T06:19:04.675Z,89.65
2022-10-02T06:21:36.548Z,89.88
2022-10-02T06:24:07.725Z,89.85
2022-10-02T06:26:40.180Z,89.55
2022-10-02T06:29:18.350Z,89.41
2022-10-02T06:31:49.730Z,89.66
2022-10-02T06:34:16.586Z,89.54
2022-10-02T06:37:01.310Z,89.35
2022-10-02T06:39:45.603Z,89.42
2022-10-02T06:42:52.890Z,89.29
2022-10-02T06:45:32.173Z,88.88
2022-10-02T06:48:06.749Z,89.21
2022-10-02T06:50:51.786Z,88.96
2022-10-02T06:53:42.928Z,89.21
2022-10-02T06:56:38.313Z,89.21
2022-10-02T06:59:28.257Z,88.93
2022-10-02T07:02:10.370Z,89.15
2022-10-02T07:04:42.389Z,89.03
2022-10-02T07:07:32.697Z,88.75
2022-10-02T07:10:26.320Z,88.84
2022-10-02T07:13:26.138Z,88.51
2022-10-02T07:16:07.108Z,88.70
2022-10-02T07:18:49.318Z,88.73
2022-10-02T07:24:38.015Z,88.17
2022-10-02T07:27:26.028Z,87.81
2022-10-02T07:30:10.927Z,88.01
2022-10-02T07:33:08.491Z,87.69
2022-10-02T07:35:51.967Z,87.58
2022-10-02T07:38:46.908Z,87.65
2022-10-02T07:41:52.645Z,87.35
2022-10-02T07:44:51.880Z,87.25
2022-10-02T07:47:34.047Z,86.84
2022-10-02T07:50:11.430Z,86.46
2022-10-02T07:52:51.860Z,86.64
2022-10-02T07:55:26.294Z,86.64
2022-10-02T07:57:59.866Z,86.55
2022-10-02T08:00:31.820Z,86.38
2022-10-02T08:03:06.650Z,85.78
2022-10-02T08:06:05.113Z,85.73
2022-10-02T08:09:03.516Z,85.70
2022-10-02T08:11:40.569Z,85.68
2022-10-02T08:14:20.186Z,85.30
2022-10-02T08:16:49.836Z,85.29
2022-10-02T08:19:30.027Z,85.13
2022-10-02T08:22:06.200Z,85.10
2022-10-02T08:24:38.439Z,84.90
2022-10-02T08:27:45.731Z,84.82
2022-10-02T08:30:15.924Z,84.53
2022-10-02T08:32:44.300Z,84.44
2022-10-02T08:35:19.808Z,84.57
2022-10-02T08:38:06.928Z,84.50
2022-10-02T08:41:05.108Z,84.60
2022-10-02T08:43:50.933Z,84.57
2022-10-02T08:46:36.322Z,84.23
2022-10-02T08:49:16.902Z,84.65
2022-10-02T08:52:02.849Z,84.59
2022-10-02T08:54:50.608Z,84.25
2022-10-02T08:58:11.210Z,84.02
2022-10-02T09:01:05.399Z,83.93
2022-10-02T09:03:58.165Z,84.15
2022-10-02T09:07:00.744Z,84.19
2022-10-02T09:10:00.727Z,84.10
2022-10-02T09:12:58.600Z,83.92
2022-10-02T09:15:48.213Z,83.72
2022-10-02T09:18:39.565Z,84.07
2022-10-02T09:21:34.902Z,83.91
2022-10-02T09:24:30.147Z,83.71
2022-10-02T09:27:39.682Z,83.70
2022-10-02T09:30:12.350Z,83.79
2022-10-02T09:33:04.028Z,83.97
2022-10-02T09:36:28.872Z,83.52
2022-10-02T09:39:46.533Z,83.68
2022-10-02T09:42:23.437Z,83.09
2022-10-02T09:45:27.017Z,83.30
2022-10-02T09:48:15.714Z,82.84
2022-10-02T09:51:16.719Z,82.39
2022-10-02T09:53:58.102Z,82.51
2022-10-02T09:57:07.189Z,81.18
2022-10-02T09:59:58.873Z,80.91
2022-10-02T10:02:34.901Z,80.81
2022-10-02T10:05:28.107Z,80.72
2022-10-02T10:08:34.600Z,80.36
2022-10-02T10:11:35.910Z,80.61
2022-10-02T10:14:39.729Z,81.11
2022-10-02T10:17:26.655Z,81.22
2022-10-02T10:20:16.380Z,81.95
2022-10-02T10:23:06.794Z,82.59
2022-10-02T10:26:17.288Z,82.99
2022-10-02T10:29:14.357Z,84.85
2022-10-02T10:31:53.652Z,84.88
2022-10-02T10:34:36.778Z,85.37
2022-10-02T10:37:24.528Z,86.21
2022-10-02T10:40:30.227Z,86.78
2022-10-02T10:43:19.128Z,87.78
2022-10-02T10:46:24.601Z,88.21
2022-10-02T10:49:13.867Z,88.34
2022-10-02T10:52:03.078Z,88.38
2022-10-02T10:54:59.252Z,88.51
2022-10-02T10:57:52.102Z,88.95
2022-10-02T11:00:25.367Z,88.97
2022-10-02T11:03:39.959Z,88.78
2022-10-02T11:06:47.831Z,89.27
2022-10-02T11:12:40.790Z,89.51
2022-10-02T11:15:39.347Z,89.18
2022-10-02T11:18:40.494Z,89.54
2022-10-02T11:21:42.749Z,89.45
2022-10-02T11:24:40.733Z,89.59
2022-10-02T11:27:16.955Z,89.73
2022-10-02T11:30:05.776Z,89.39
2022-10-02T11:32:46.059Z,89.14
2022-10-02T11:35:22.136Z,88.92
2022-10-02T11:38:04.371Z,89.10
2022-10-02T11:40:49.500Z,88.86
2022-10-02T11:43:23.071Z,88.69
2022-10-02T11:46:09.112Z,88.29
2022-10-02T11:49:06.867Z,88.26
2022-10-02T11:52:00.385Z,88.31
2022-10-02T11:54:27.987Z,88.17
2022-10-02T11:57:17.411Z,87.94
2022-10-02T12:00:14.985Z,87.60
2022-10-02T12:02:56.618Z,87.33
2022-10-02T12:05:45.821Z,86.85
2022-10-02T12:08:24.435Z,86.15
2022-10-02T12:10:59.478Z,85.42
2022-10-02T12:13:33.494Z,84.88
2022-10-02T12:16:35.714Z,84.23
2022-10-02T12:19:15.875Z,83.41
2022-10-02T12:22:29.500Z,83.07
2022-10-02T12:25:35.163Z,81.95
2022-10-02T12:28:26.777Z,81.39
2022-10-02T12:31:01.440Z,81.06
2022-10-02T12:34:14.441Z,80.60
2022-10-02T12:36:56.831Z,78.75
2022-10-02T12:39:40.330Z,78.28
2022-10-02T12:42:43.966Z,77.34
2022-10-02T12:45:48.821Z,76.03
2022-10-02T12:48:42.423Z,75.48
2022-10-02T12:51:29.162Z,73.75
2022-10-02T12:54:18.074Z,73.79
2022-10-02T12:57:38.116Z,72.48
2022-10-02T13:00:15.157Z,71.48
2022-10-02T13:03:05.750Z,71.23
2022-10-02T13:05:55.582Z,70.94
2022-10-02T13:08:35.483Z,70.11
2022-10-02T13:11:20.867Z,68.83
2022-10-02T13:14:05.571Z,68.36
2022-10-02T13:16:58.404Z,68.12
2022-10-02T13:19:56.750Z,67.64
2022-10-02T13:22:37.208Z,67.73
2022-10-02T13:25:34.551Z,67.30
2022-10-02T13:28:21.069Z,67.38
2022-10-02T13:31:15.298Z,67.10
2022-10-02T13:34:19.843Z,66.37
2022-10-02T13:36:56.272Z,65.55
2022-10-02T13:39:36.631Z,65.58
2022-10-02T13:42:37.255Z,65.28
2022-10-02T13:45:19.327Z,64.44
2022-10-02T13:48:27.788Z,64.10
2022-10-02T13:51:16.655Z,63.57
2022-10-02T13:54:15.023Z,63.51
2022-10-02T13:57:14.565Z,64.20
2022-10-02T14:00:02.850Z,63.91
2022-10-02T14:02:43.803Z,63.30
2022-10-02T14:05:46.768Z,63.46
2022-10-02T14:08:42.864Z,63.10
2022-10-02T14:12:05.620Z,62.87
2022-10-02T14:15:12.360Z,63.19
2022-10-02T14:18:01.554Z,63.30
2022-10-02T14:20:51.645Z,62.51
2022-10-02T14:23:52.398Z,62.23
2022-10-02T14:26:40.381Z,62.69
2022-10-02T14:29:27.353Z,62.62
2022-10-02T14:32:06.081Z,63.06
2022-10-02T14:34:59.164Z,63.41
2022-10-02T14:37:42.748Z,63.59
2022-10-02T14:40:14.850Z,63.70
2022-10-02T14:43:07.674Z,63.46
2022-10-02T14:45:57.207Z,62.60
2022-10-02T14:48:51.134Z,62.30
2022-10-02T14:51:47.443Z,62.62
2022-10-02T14:54:36.049Z,63.02
2022-10-02T14:57:19.159Z,63.03
2022-10-02T14:59:53.257Z,62.95
2022-10-02T15:02:37.902Z,63.06
2022-10-02T15:05:29.564Z,62.78
2022-10-02T15:07:56.620Z,62.68
2022-10-02T15:10:26.956Z,61.99
2022-10-02T15:13:26.843Z,61.53
2022-10-02T15:16:16.963Z,61.54
2022-10-02T15:18:50.709Z,61.26
2022-10-02T15:21:34.035Z,60.41
2022-10-02T15:24:26.094Z,60.02
2022-10-02T15:27:09.531Z,59.00
2022-10-02T15:29:57.253Z,59.33
2022-10-02T15:32:34.702Z,57.45
2022-10-02T15:35:36.437Z,54.90
2022-10-02T15:38:41.104Z,54.26
2022-10-02T15:41:32.146Z,54.03
2022-10-02T15:44:21.018Z,55.12
2022-10-02T15:47:17.726Z,56.00
2022-10-02T15:50:02.917Z,56.43
2022-10-02T15:52:40.845Z,57.68
2022-10-02T15:55:19.894Z,58.29
2022-10-02T15:58:04.714Z,60.09
2022-10-02T16:00:54.071Z,61.32
2022-10-02T16:03:24.478Z,62.33
2022-10-02T16:06:00.502Z,63.41
2022-10-02T16:08:31.655Z,64.16
2022-10-02T16:11:13.897Z,64.54
2022-10-02T16:14:06.067Z,64.94
2022-10-02T16:16:40.464Z,65.62
2022-10-02T16:19:13.511Z,65.91
2022-10-02T16:21:59.031Z,66.16
2022-10-02T16:24:44.698Z,67.12
2022-10-02T16:27:20.790Z,67.36
2022-10-02T16:30:08.383Z,67.72
2022-10-02T16:32:58.261Z,68.17
2022-10-02T16:35:45.044Z,68.41
2022-10-02T16:38:38.045Z,68.96
2022-10-02T16:41:15.380Z,69.13
2022-10-02T16:43:58.972Z,69.86
2022-10-02T16:46:39.556Z,70.20
2022-10-02T16:49:30.160Z,70.53
2022-10-02T16:52:41.593Z,71.00
2022-10-02T16:55:32.185Z,71.41
2022-10-02T16:58:26.422Z,71.76
2022-10-02T17:00:56.584Z,71.86
2022-10-02T17:03:44.231Z,71.94
2022-10-02T17:06:24.625Z,72.20
2022-10-02T17:09:01.747Z,72.61
2022-10-02T17:11:32.711Z,73.29
2022-10-02T17:14:20.206Z,73.19
2022-10-02T17:16:55.958Z,73.78
2022-10-02T17:19:52.924Z,73.80
2022-10-02T17:22:28.884Z,73.84
2022-10-02T17:25:14.906Z,74.22
2022-10-02T17:28:00.607Z,74.85
2022-10-02T17:30:30.313Z,74.95
2022-10-02T17:33:05.649Z,75.17
2022-10-02T17:35:34.445Z,75.30
2022-10-02T17:38:24.136Z,75.58
2022-10-02T17:41:20.549Z,76.10
2022-10-02T17:44:01.538Z,76.05
2022-10-02T17:46:34.280Z,76.41
2022-10-02T17:49:20.007Z,76.13
2022-10-02T17:52:47.921Z,76.29
2022-10-02T17:56:06.285Z,76.87
2022-10-02T17:59:10.306Z,76.86
2022-10-02T18:02:14.447Z,76.56
2022-10-02T18:04:53.818Z,76.95
2022-10-02T18:07:44.951Z,77.15
2022-10-02T18:10:33.397Z,77.32
2022-10-02T18:16:28.258Z,77.02
2022-10-02T18:19:04.143Z,77.01
2022-10-02T18:22:04.782Z,77.13
2022-10-02T18:25:03.512Z,77.36
2022-10-02T18:27:32.395Z,77.28
2022-10-02T18:30:20.528Z,77.56
2022-10-02T18:33:07.850Z,77.71
2022-10-02T18:36:31.047Z,78.02
2022-10-02T18:39:56.795Z,77.92
2022-10-02T18:43:14.822Z,77.82
2022-10-02T18:46:06.944Z,78.11
2022-10-02T18:48:47.142Z,77.97
2022-10-02T18:51:24.505Z,78.07
2022-10-02T18:53:58.698Z,78.37
2022-10-02T18:56:44.093Z,78.62
2022-10-02T18:59:28.948Z,78.71
2022-10-02T19:02:17.336Z,78.71
2022-10-02T19:05:06.653Z,78.87
2022-10-02T19:07:44.336Z,79.01
2022-10-02T19:10:27.521Z,79.39
2022-10-02T19:12:56.815Z,79.25
2022-10-02T19:23:32.949Z,79.89
2022-10-02T19:24:08.894Z,79.98
2022-10-02T19:26:51.221Z,80.09
2022-10-02T19:29:57.532Z,80.58
2022-10-02T19:32:41.489Z,80.42
2022-10-02T19:35:19.095Z,80.76
2022-10-02T19:37:49.235Z,81.16
2022-10-02T19:40:23.894Z,81.20
2022-10-02T19:43:04.554Z,81.07
2022-10-02T19:45:36.684Z,81.25
2022-10-02T19:48:09.438Z,81.65
2022-10-02T19:50:57.307Z,81.76
2022-10-02T19:53:36.059Z,81.50
2022-10-02T19:56:45.414Z,81.91
2022-10-02T19:59:12.316Z,82.11
2022-10-02T20:01:45.393Z,82.46
2022-10-02T20:04:21.702Z,82.34
2022-10-02T20:06:53.285Z,82.21
2022-10-02T20:09:51.778Z,82.69
2022-10-02T20:12:27.450Z,82.55
2022-10-02T20:15:44.674Z,82.40
2022-10-02T20:18:14.765Z,82.41
2022-10-02T20:20:44.174Z,82.47
2022-10-02T20:23:22.816Z,82.70
2022-10-02T20:25:53.343Z,82.62
2022-10-02T20:28:27.510Z,82.52
2022-10-02T20:31:07.541Z,82.77
2022-10-02T20:33:40.847Z,82.60
2022-10-02T20:36:19.638Z,83.15
2022-10-02T20:39:00.596Z,83.18
2022-10-02T20:42:03.110Z,83.24
2022-10-02T20:44:31.808Z,83.14
2022-10-02T20:47:35.754Z,83.14
2022-10-02T20:50:25.284Z,83.23
2022-10-02T20:53:14.104Z,83.21
2022-10-02T20:55:50.815Z,83.31
2022-10-02T20:58:40.446Z,83.48
2022-10-02T21:01:22.682Z,83.33
2022-10-02T21:04:20.088Z,83.44
2022-10-02T21:07:07.242Z,83.58
2022-10-02T21:09:40.372Z,83.28
2022-10-02T21:12:29.270Z,83.63
2022-10-02T21:15:16.726Z,83.27
2022-10-02T21:18:20.694Z,83.61
2022-10-02T21:21:08.887Z,83.37
2022-10-02T21:23:57.769Z,83.46
2022-10-02T21:26:47.452Z,83.20
2022-10-02T21:29:37.414Z,83.24
2022-10-02T21:32:28.324Z,83.44
2022-10-02T21:35:16.801Z,83.33
2022-10-02T21:38:01.252Z,83.51
2022-10-02T21:40:46.571Z,83.39
2022-10-02T21:43:47.652Z,83.70
2022-10-02T21:46:33.418Z,83.83
2022-10-02T21:49:33.228Z,83.95
2022-10-02T21:52:28.095Z,84.00
2022-10-02T21:54:58.216Z,84.17
2022-10-02T21:57:57.818Z,84.21
2022-10-02T22:00:28.640Z,83.96
2022-10-02T22:02:55.757Z,84.26
2022-10-02T22:05:47.335Z,84.47
2022-10-02T22:08:29.732Z,84.43
2022-10-02T22:11:06.277Z,84.40
2022-10-02T22:13:40.017Z,84.37
2022-10-02T22:16:26.604Z,84.28
2022-10-02T22:19:07.652Z,84.31
2022-10-02T22:21:54.200Z,84.43
2022-10-02T22:24:42.965Z,84.86
2022-10-02T22:27:21.224Z,85.03
2022-10-02T22:29:50.969Z,85.10
2022-10-02T22:33:07.605Z,85.07
2022-10-02T22:36:03.509Z,85.24
2022-10-02T22:38:35.882Z,85.39
2022-10-02T22:41:22.012Z,85.37
2022-10-02T22:44:05.467Z,85.29
2022-10-02T22:46:44.628Z,85.54
2022-10-02T22:49:30.216Z,85.43
2022-10-02T22:52:24.838Z,85.71
2022-10-02T22:55:03.174Z,85.85
2022-10-02T22:57:42.837Z,85.86
2022-10-02T23:00:21.325Z,85.41
2022-10-02T23:02:55.784Z,85.75
2022-10-02T23:05:51.877Z,85.82
2022-10-02T23:08:26.579Z,85.92
2022-10-02T23:10:57.455Z,86.25
2022-10-02T23:13:37.946Z,86.12
2022-10-02T23:16:35.537Z,86.16
2022-10-02T23:19:05.384Z,86.58
2022-10-02T23:21:45.873Z,86.45
2022-10-02T23:24:13.213Z,86.66
2022-10-02T23:27:03.171Z,86.67
2022-10-02T23:29:51.941Z,86.89
2022-10-02T23:32:24.719Z,86.71
2022-10-02T23:35:00.048Z,87.15
2022-10-02T23:37:35.109Z,86.71
2022-10-02T23:40:20.778Z,86.92
2022-10-02T23:42:52.385Z,86.84
2022-10-02T23:45:50.249Z,86.92
2022-10-02T23:48:18.209Z,87.13
2022-10-02T23:51:09.974Z,86.72
2022-10-02T23:53:42.898Z,86.79
2022-10-02T23:56:28.181Z,86.83
2022-10-02T23:59:12.899Z,87.02
